sensor_id;sensor_type;location;lat;lon;timestamp;pressure;altitude;pressure_sealevel;temperature;humidity
44872;BME280;30602;51.060;17.226;2024-03-08T00:02:13;102339.18;;;-0.52;100.00
44872;BME280;30602;51.060;17.226;2024-03-08T00:06:02;102340.81;;;-0.47;100.00
44872;BME280;30602;51.060;17.226;2024-03-08T00:09:43;102342.80;;;-0.55;100.00
44872;BME280;30602;51.060;17.226;2024-03-08T00:13:50;102344.83;;;-0.64;100.00
44872;BME280;30602;51.060;17.226;2024-03-08T00:18:05;102343.76;;;-0.68;100.00
44872;BME280;30602;51.060;17.226;2024-03-08T00:21:31;102345.91;;;-0.69;100.00
44872;BME280;30602;51.060;17.226;2024-03-08T00:25:10;102347.66;;;-0.68;100.00
44872;BME280;30602;51.060;17.226;2024-03-08T00:29:05;102340.78;;;-0.73;100.00
44872;BME280;30602;51.060;17.226;2024-03-08T00:32:53;102343.69;;;-0.74;100.00
44872;BME280;30602;51.060;17.226;2024-03-08T00:36:54;102349.59;;;-0.75;100.00
44872;BME280;30602;51.060;17.226;2024-03-08T00:40:18;102345.44;;;-0.86;100.00
44872;BME280;30602;51.060;17.226;2024-03-08T00:44:24;102344.89;;;-1.02;100.00
44872;BME280;30602;51.060;17.226;2024-03-08T00:48:28;102339.63;;;-0.95;100.00
44872;BME280;30602;51.060;17.226;2024-03-08T00:52:41;102334.32;;;-1.01;100.00
44872;BME280;30602;51.060;17.226;2024-03-08T01:00:33;102322.20;;;-1.07;100.00
44872;BME280;30602;51.060;17.226;2024-03-08T01:04:05;102322.83;;;-1.01;100.00
44872;BME280;30602;51.060;17.226;2024-03-08T01:08:09;102324.41;;;-0.91;100.00
44872;BME280;30602;51.060;17.226;2024-03-08T01:11:34;102324.63;;;-0.90;100.00
44872;BME280;30602;51.060;17.226;2024-03-08T01:15:47;102317.86;;;-1.14;100.00
44872;BME280;30602;51.060;17.226;2024-03-08T01:19:34;102307.88;;;-1.39;100.00
44872;BME280;30602;51.060;17.226;2024-03-08T01:22:58;102301.13;;;-1.40;100.00
44872;BME280;30602;51.060;17.226;2024-03-08T01:26:26;102299.36;;;-1.41;100.00
44872;BME280;30602;51.060;17.226;2024-03-08T01:30:23;102284.02;;;-1.41;100.00
44872;BME280;30602;51.060;17.226;2024-03-08T01:34:19;102299.05;;;-1.31;100.00
44872;BME280;30602;51.060;17.226;2024-03-08T01:37:46;102294.23;;;-1.30;100.00
44872;BME280;30602;51.060;17.226;2024-03-08T01:42:24;102291.80;;;-1.38;100.00
44872;BME280;30602;51.060;17.226;2024-03-08T01:46:10;102291.77;;;-1.36;100.00
44872;BME280;30602;51.060;17.226;2024-03-08T01:50:00;102288.01;;;-1.37;100.00
44872;BME280;30602;51.060;17.226;2024-03-08T01:53:30;102286.77;;;-1.63;100.00
44872;BME280;30602;51.060;17.226;2024-03-08T01:57:44;102290.29;;;-1.78;100.00
44872;BME280;30602;51.060;17.226;2024-03-08T02:01:22;102284.29;;;-1.60;100.00
44872;BME280;30602;51.060;17.226;2024-03-08T02:05:14;102288.09;;;-1.58;100.00
44872;BME280;30602;51.060;17.226;2024-03-08T02:08:45;102281.42;;;-1.53;100.00
44872;BME280;30602;51.060;17.226;2024-03-08T02:12:13;102282.44;;;-1.50;100.00
44872;BME280;30602;51.060;17.226;2024-03-08T02:20:58;102280.73;;;-1.83;100.00
44872;BME280;30602;51.060;17.226;2024-03-08T02:25:08;102279.00;;;-1.95;100.00
44872;BME280;30602;51.060;17.226;2024-03-08T02:28:40;102274.61;;;-1.90;100.00
44872;BME280;30602;51.060;17.226;2024-03-08T02:32:44;102274.30;;;-2.01;100.00
44872;BME280;30602;51.060;17.226;2024-03-08T02:36:36;102269.16;;;-1.92;100.00
44872;BME280;30602;51.060;17.226;2024-03-08T02:40:40;102263.68;;;-1.90;100.00
44872;BME280;30602;51.060;17.226;2024-03-08T02:44:43;102265.02;;;-1.85;100.00
44872;BME280;30602;51.060;17.226;2024-03-08T02:48:42;102255.55;;;-1.86;100.00
44872;BME280;30602;51.060;17.226;2024-03-08T02:52:05;102255.54;;;-1.86;100.00
44872;BME280;30602;51.060;17.226;2024-03-08T02:56:17;102259.03;;;-1.89;100.00
44872;BME280;30602;51.060;17.226;2024-03-08T03:00:00;102254.13;;;-2.01;100.00
44872;BME280;30602;51.060;17.226;2024-03-08T03:06:29;102262.02;;;-2.27;100.00
44872;BME280;30602;51.060;17.226;2024-03-08T03:09:51;102267.06;;;-2.34;100.00
44872;BME280;30602;51.060;17.226;2024-03-08T03:13:44;102264.36;;;-2.34;100.00
44872;BME280;30602;51.060;17.226;2024-03-08T03:17:24;102258.59;;;-2.39;100.00
44872;BME280;30602;51.060;17.226;2024-03-08T03:21:38;102257.13;;;-2.52;100.00
44872;BME280;30602;51.060;17.226;2024-03-08T03:25:49;102253.93;;;-2.39;100.00
44872;BME280;30602;51.060;17.226;2024-03-08T03:29:18;102243.82;;;-2.19;100.00
44872;BME280;30602;51.060;17.226;2024-03-08T03:36:45;102254.66;;;-2.04;100.00
44872;BME280;30602;51.060;17.226;2024-03-08T03:40:31;102258.45;;;-2.18;100.00
44872;BME280;30602;51.060;17.226;2024-03-08T03:44:07;102257.34;;;-2.26;100.00
44872;BME280;30602;51.060;17.226;2024-03-08T03:47:30;102252.92;;;-2.28;100.00
44872;BME280;30602;51.060;17.226;2024-03-08T03:51:33;102252.64;;;-2.40;100.00
44872;BME280;30602;51.060;17.226;2024-03-08T03:55:03;102255.33;;;-2.34;100.00
44872;BME280;30602;51.060;17.226;2024-03-08T03:58:58;102252.66;;;-2.32;100.00
44872;BME280;30602;51.060;17.226;2024-03-08T04:03:13;102253.02;;;-2.35;100.00
44872;BME280;30602;51.060;17.226;2024-03-08T04:07:01;102255.52;;;-2.47;100.00
44872;BME280;30602;51.060;17.226;2024-03-08T04:14:42;102252.54;;;-2.49;100.00
44872;BME280;30602;51.060;17.226;2024-03-08T04:18:38;102248.63;;;-2.55;100.00
44872;BME280;30602;51.060;17.226;2024-03-08T04:22:23;102253.48;;;-2.65;100.00
44872;BME280;30602;51.060;17.226;2024-03-08T04:25:48;102251.63;;;-2.61;100.00
44872;BME280;30602;51.060;17.226;2024-03-08T04:29:09;102247.86;;;-2.56;100.00
44872;BME280;30602;51.060;17.226;2024-03-08T04:33:02;102244.98;;;-2.69;100.00
44872;BME280;30602;51.060;17.226;2024-03-08T04:40:41;102251.31;;;-2.65;100.00
44872;BME280;30602;51.060;17.226;2024-03-08T04:44:44;102243.72;;;-2.63;100.00
44872;BME280;30602;51.060;17.226;2024-03-08T04:48:11;102249.73;;;-2.63;100.00
44872;BME280;30602;51.060;17.226;2024-03-08T04:51:33;102248.26;;;-2.65;100.00
44872;BME280;30602;51.060;17.226;2024-03-08T04:55:34;102253.00;;;-2.63;100.00
44872;BME280;30602;51.060;17.226;2024-03-08T04:58:52;102254.45;;;-2.65;100.00
44872;BME280;30602;51.060;17.226;2024-03-08T05:02:52;102253.02;;;-2.72;100.00
44872;BME280;30602;51.060;17.226;2024-03-08T05:06:17;102251.66;;;-2.88;100.00
44872;BME280;30602;51.060;17.226;2024-03-08T05:10:04;102240.77;;;-3.06;100.00
44872;BME280;30602;51.060;17.226;2024-03-08T05:13:53;102256.73;;;-2.93;100.00
44872;BME280;30602;51.060;17.226;2024-03-08T05:17:58;102254.56;;;-2.86;100.00
44872;BME280;30602;51.060;17.226;2024-03-08T05:21:37;102251.75;;;-3.01;100.00
44872;BME280;30602;51.060;17.226;2024-03-08T05:25:23;102254.58;;;-3.15;100.00
44872;BME280;30602;51.060;17.226;2024-03-08T05:29:24;102250.45;;;-3.18;100.00
44872;BME280;30602;51.060;17.226;2024-03-08T05:32:48;102250.04;;;-3.32;100.00
44872;BME280;30602;51.060;17.226;2024-03-08T05:36:29;102248.51;;;-3.18;100.00
44872;BME280;30602;51.060;17.226;2024-03-08T05:40:21;102236.16;;;-3.09;100.00
44872;BME280;30602;51.060;17.226;2024-03-08T05:44:42;102248.71;;;-3.07;100.00
44872;BME280;30602;51.060;17.226;2024-03-08T05:48:33;102254.08;;;-2.92;100.00
44872;BME280;30602;51.060;17.226;2024-03-08T05:52:03;102255.17;;;-2.79;100.00
44872;BME280;30602;51.060;17.226;2024-03-08T05:55:28;102254.75;;;-2.84;100.00
44872;BME280;30602;51.060;17.226;2024-03-08T05:59:22;102254.41;;;-2.82;100.00
44872;BME280;30602;51.060;17.226;2024-03-08T06:03:19;102260.31;;;-2.64;100.00
44872;BME280;30602;51.060;17.226;2024-03-08T06:07:06;102262.78;;;-2.42;100.00
44872;BME280;30602;51.060;17.226;2024-03-08T06:11:14;102257.52;;;-2.26;100.00
44872;BME280;30602;51.060;17.226;2024-03-08T06:15:47;102258.36;;;-2.04;100.00
44872;BME280;30602;51.060;17.226;2024-03-08T06:19:58;102262.74;;;-1.81;100.00
44872;BME280;30602;51.060;17.226;2024-03-08T06:23:47;102267.04;;;-1.68;100.00
44872;BME280;30602;51.060;17.226;2024-03-08T06:27:58;102269.26;;;-1.58;100.00
44872;BME280;30602;51.060;17.226;2024-03-08T06:31:45;102265.54;;;-1.52;100.00
44872;BME280;30602;51.060;17.226;2024-03-08T06:35:22;102261.80;;;-1.46;100.00
44872;BME280;30602;51.060;17.226;2024-03-08T06:39:01;102258.87;;;-1.35;100.00
44872;BME280;30602;51.060;17.226;2024-03-08T06:42:28;102252.80;;;-1.23;100.00
44872;BME280;30602;51.060;17.226;2024-03-08T06:46:35;102250.43;;;-1.13;100.00
44872;BME280;30602;51.060;17.226;2024-03-08T06:50:18;102251.28;;;-0.99;100.00
44872;BME280;30602;51.060;17.226;2024-03-08T06:53:43;102242.22;;;-1.06;100.00
44872;BME280;30602;51.060;17.226;2024-03-08T06:57:23;102251.62;;;-0.93;100.00
44872;BME280;30602;51.060;17.226;2024-03-08T07:00:54;102248.44;;;-0.81;100.00
44872;BME280;30602;51.060;17.226;2024-03-08T07:05:12;102252.79;;;-0.81;100.00
44872;BME280;30602;51.060;17.226;2024-03-08T07:09:01;102250.74;;;-0.71;100.00
44872;BME280;30602;51.060;17.226;2024-03-08T07:12:49;102250.05;;;-0.65;100.00
44872;BME280;30602;51.060;17.226;2024-03-08T07:16:25;102250.83;;;-0.55;100.00
44872;BME280;30602;51.060;17.226;2024-03-08T07:20:11;102255.66;;;-0.46;100.00
44872;BME280;30602;51.060;17.226;2024-03-08T07:24:29;102252.55;;;-0.36;100.00
44872;BME280;30602;51.060;17.226;2024-03-08T07:28:05;102248.74;;;-0.18;100.00
44872;BME280;30602;51.060;17.226;2024-03-08T07:31:34;102251.42;;;0.01;100.00
44872;BME280;30602;51.060;17.226;2024-03-08T07:35:37;102249.27;;;0.07;100.00
44872;BME280;30602;51.060;17.226;2024-03-08T07:39:03;102248.95;;;0.19;100.00
44872;BME280;30602;51.060;17.226;2024-03-08T07:42:42;102248.64;;;0.31;100.00
44872;BME280;30602;51.060;17.226;2024-03-08T07:46:29;102223.91;;;0.25;100.00
44872;BME280;30602;51.060;17.226;2024-03-08T07:49:50;102241.48;;;0.51;100.00
44872;BME280;30602;51.060;17.226;2024-03-08T07:53:15;102241.90;;;0.61;100.00
44872;BME280;30602;51.060;17.226;2024-03-08T07:56:57;102221.88;;;0.51;100.00
44872;BME280;30602;51.060;17.226;2024-03-08T08:01:15;102229.43;;;0.68;100.00
44872;BME280;30602;51.060;17.226;2024-03-08T08:05:05;102231.52;;;0.82;100.00
44872;BME280;30602;51.060;17.226;2024-03-08T08:12:24;102240.22;;;1.09;100.00
44872;BME280;30602;51.060;17.226;2024-03-08T08:15:50;102233.73;;;1.12;100.00
44872;BME280;30602;51.060;17.226;2024-03-08T08:19:23;102234.50;;;1.15;98.77
44872;BME280;30602;51.060;17.226;2024-03-08T08:23:13;102229.73;;;1.15;98.39
44872;BME280;30602;51.060;17.226;2024-03-08T08:26:38;102227.96;;;1.23;98.11
44872;BME280;30602;51.060;17.226;2024-03-08T08:30:04;102226.91;;;1.30;97.78
44872;BME280;30602;51.060;17.226;2024-03-08T08:34:00;102224.89;;;1.41;97.58
44872;BME280;30602;51.060;17.226;2024-03-08T08:37:57;102223.56;;;1.55;97.48
44872;BME280;30602;51.060;17.226;2024-03-08T08:41:30;102211.02;;;1.55;96.93
44872;BME280;30602;51.060;17.226;2024-03-08T08:44:55;102218.44;;;1.83;96.11
44872;BME280;30602;51.060;17.226;2024-03-08T08:48:31;102219.01;;;1.87;94.73
44872;BME280;30602;51.060;17.226;2024-03-08T08:52:02;102208.80;;;1.89;94.60
44872;BME280;30602;51.060;17.226;2024-03-08T08:55:40;102217.83;;;2.03;94.15
44872;BME280;30602;51.060;17.226;2024-03-08T08:59:24;102214.06;;;2.23;94.48
44872;BME280;30602;51.060;17.226;2024-03-08T09:02:51;102213.90;;;2.31;93.26
44872;BME280;30602;51.060;17.226;2024-03-08T09:07:01;102209.18;;;2.41;93.27
44872;BME280;30602;51.060;17.226;2024-03-08T09:10:37;102206.73;;;2.52;92.05
44872;BME280;30602;51.060;17.226;2024-03-08T09:14:04;102201.69;;;2.55;91.26
44872;BME280;30602;51.060;17.226;2024-03-08T09:17:31;102197.60;;;2.65;91.51
44872;BME280;30602;51.060;17.226;2024-03-08T09:21:34;102193.42;;;2.65;90.40
44872;BME280;30602;51.060;17.226;2024-03-08T09:25:07;102195.18;;;2.74;89.72
44872;BME280;30602;51.060;17.226;2024-03-08T09:28:46;102189.70;;;2.62;89.52
44872;BME280;30602;51.060;17.226;2024-03-08T09:32:11;102184.81;;;2.78;90.27
44872;BME280;30602;51.060;17.226;2024-03-08T09:36:09;102178.64;;;2.85;88.62
44872;BME280;30602;51.060;17.226;2024-03-08T09:40:36;102171.33;;;3.03;87.53
44872;BME280;30602;51.060;17.226;2024-03-08T09:44:47;102143.42;;;3.09;86.44
44872;BME280;30602;51.060;17.226;2024-03-08T09:49:01;102155.70;;;3.29;84.92
44872;BME280;30602;51.060;17.226;2024-03-08T09:52:37;102151.09;;;3.29;84.65
44872;BME280;30602;51.060;17.226;2024-03-08T09:56:11;102147.29;;;3.36;85.08
44872;BME280;30602;51.060;17.226;2024-03-08T10:00:13;102131.18;;;3.29;83.49
44872;BME280;30602;51.060;17.226;2024-03-08T10:03:47;102138.67;;;3.42;82.85
44872;BME280;30602;51.060;17.226;2024-03-08T10:07:10;102136.08;;;3.46;82.90
44872;BME280;30602;51.060;17.226;2024-03-08T10:10:34;102138.04;;;3.51;82.77
44872;BME280;30602;51.060;17.226;2024-03-08T10:14:00;102130.59;;;3.60;83.13
44872;BME280;30602;51.060;17.226;2024-03-08T10:17:40;102129.43;;;3.67;82.49
44872;BME280;30602;51.060;17.226;2024-03-08T10:21:08;102129.83;;;3.75;82.26
44872;BME280;30602;51.060;17.226;2024-03-08T10:24:40;102126.60;;;3.77;81.21
44872;BME280;30602;51.060;17.226;2024-03-08T10:28:06;102131.46;;;3.94;81.80
44872;BME280;30602;51.060;17.226;2024-03-08T10:31:43;102129.36;;;4.09;79.79
44872;BME280;30602;51.060;17.226;2024-03-08T10:35:03;102130.77;;;4.33;80.09
44872;BME280;30602;51.060;17.226;2024-03-08T10:38:52;102129.27;;;4.37;77.56
44872;BME280;30602;51.060;17.226;2024-03-08T10:42:16;102123.08;;;4.24;76.33
44872;BME280;30602;51.060;17.226;2024-03-08T10:46:15;102126.91;;;4.28;76.49
44872;BME280;30602;51.060;17.226;2024-03-08T10:49:37;102120.23;;;4.42;76.31
44872;BME280;30602;51.060;17.226;2024-03-08T10:54:02;102117.98;;;4.45;75.48
44872;BME280;30602;51.060;17.226;2024-03-08T10:57:52;102116.57;;;4.43;74.97
44872;BME280;30602;51.060;17.226;2024-03-08T11:09:35;102103.70;;;4.61;71.81
44872;BME280;30602;51.060;17.226;2024-03-08T11:16:51;102093.73;;;4.84;72.32
44872;BME280;30602;51.060;17.226;2024-03-08T11:20:18;102085.78;;;4.85;71.59
44872;BME280;30602;51.060;17.226;2024-03-08T11:24:14;102083.76;;;4.90;70.68
44872;BME280;30602;51.060;17.226;2024-03-08T11:28:08;102076.83;;;4.93;70.71
44872;BME280;30602;51.060;17.226;2024-03-08T11:35:36;102067.03;;;5.05;69.94
44872;BME280;30602;51.060;17.226;2024-03-08T11:39:30;102061.72;;;5.02;69.27
44872;BME280;30602;51.060;17.226;2024-03-08T11:43:16;102055.39;;;5.05;68.58
44872;BME280;30602;51.060;17.226;2024-03-08T11:47:11;102046.32;;;5.08;69.10
44872;BME280;30602;51.060;17.226;2024-03-08T11:51:00;102036.36;;;5.11;67.15
44872;BME280;30602;51.060;17.226;2024-03-08T11:55:11;102035.12;;;5.15;65.86
44872;BME280;30602;51.060;17.226;2024-03-08T11:58:38;102037.23;;;5.20;65.29
44872;BME280;30602;51.060;17.226;2024-03-08T12:02:39;102032.18;;;5.32;65.27
44872;BME280;30602;51.060;17.226;2024-03-08T12:06:20;102020.81;;;5.46;65.73
44872;BME280;30602;51.060;17.226;2024-03-08T12:14:04;102020.32;;;5.74;64.86
44872;BME280;30602;51.060;17.226;2024-03-08T12:18:11;102013.67;;;5.70;65.36
44872;BME280;30602;51.060;17.226;2024-03-08T12:22:09;102019.22;;;5.71;63.27
44872;BME280;30602;51.060;17.226;2024-03-08T12:25:51;102004.47;;;5.56;63.99
44872;BME280;30602;51.060;17.226;2024-03-08T12:29:28;102001.77;;;5.72;64.39
44872;BME280;30602;51.060;17.226;2024-03-08T12:32:58;102000.66;;;5.68;63.63
44872;BME280;30602;51.060;17.226;2024-03-08T12:36:32;101993.53;;;5.56;63.10
44872;BME280;30602;51.060;17.226;2024-03-08T12:40:35;101991.73;;;5.69;65.18
44872;BME280;30602;51.060;17.226;2024-03-08T12:44:25;101988.04;;;5.85;64.96
44872;BME280;30602;51.060;17.226;2024-03-08T12:47:47;101987.23;;;5.91;64.60
44872;BME280;30602;51.060;17.226;2024-03-08T12:51:07;101982.90;;;5.80;62.84
44872;BME280;30602;51.060;17.226;2024-03-08T12:55:01;101976.71;;;5.83;63.84
44872;BME280;30602;51.060;17.226;2024-03-08T12:59:00;101975.16;;;5.95;63.29
44872;BME280;30602;51.060;17.226;2024-03-08T13:02:24;101967.84;;;5.98;63.36
44872;BME280;30602;51.060;17.226;2024-03-08T13:06:30;101962.43;;;6.00;63.60
44872;BME280;30602;51.060;17.226;2024-03-08T13:10:43;101958.95;;;6.07;64.39
44872;BME280;30602;51.060;17.226;2024-03-08T13:14:05;101950.62;;;6.07;62.35
44872;BME280;30602;51.060;17.226;2024-03-08T13:17:42;101947.07;;;6.04;62.96
44872;BME280;30602;51.060;17.226;2024-03-08T13:21:40;101938.78;;;6.05;62.47
44872;BME280;30602;51.060;17.226;2024-03-08T13:25:22;101938.93;;;6.21;64.15
44872;BME280;30602;51.060;17.226;2024-03-08T13:28:46;101935.19;;;6.24;62.55
44872;BME280;30602;51.060;17.226;2024-03-08T13:33:32;101929.76;;;6.24;62.02
44872;BME280;30602;51.060;17.226;2024-03-08T13:37:17;101923.10;;;6.21;62.77
44872;BME280;30602;51.060;17.226;2024-03-08T13:40:50;101922.13;;;6.25;63.31
44872;BME280;30602;51.060;17.226;2024-03-08T13:44:36;101916.73;;;6.38;63.82
44872;BME280;30602;51.060;17.226;2024-03-08T13:49:04;101902.02;;;6.27;62.74
44872;BME280;30602;51.060;17.226;2024-03-08T13:52:51;101911.33;;;6.41;62.18
44872;BME280;30602;51.060;17.226;2024-03-08T13:56:17;101906.59;;;6.47;63.22
44872;BME280;30602;51.060;17.226;2024-03-08T13:59:43;101906.66;;;6.44;62.46
44872;BME280;30602;51.060;17.226;2024-03-08T14:03:10;101901.42;;;6.49;63.53
44872;BME280;30602;51.060;17.226;2024-03-08T14:07:15;101895.94;;;6.58;63.87
44872;BME280;30602;51.060;17.226;2024-03-08T14:11:08;101897.30;;;6.56;62.04
44872;BME280;30602;51.060;17.226;2024-03-08T14:14:35;101891.88;;;6.56;62.46
44872;BME280;30602;51.060;17.226;2024-03-08T14:18:33;101887.30;;;6.59;62.86
44872;BME280;30602;51.060;17.226;2024-03-08T14:22:21;101886.20;;;6.50;61.65
44872;BME280;30602;51.060;17.226;2024-03-08T14:26:06;101881.95;;;6.49;62.63
44872;BME280;30602;51.060;17.226;2024-03-08T14:29:29;101880.02;;;6.59;63.16
44872;BME280;30602;51.060;17.226;2024-03-08T14:33:15;101878.92;;;6.62;62.41
44872;BME280;30602;51.060;17.226;2024-03-08T14:36:39;101877.18;;;6.65;62.42
44872;BME280;30602;51.060;17.226;2024-03-08T14:40:13;101871.96;;;6.65;62.45
44872;BME280;30602;51.060;17.226;2024-03-08T14:44:08;101871.56;;;6.64;62.98
44872;BME280;30602;51.060;17.226;2024-03-08T14:48:04;101866.56;;;6.67;62.48
44872;BME280;30602;51.060;17.226;2024-03-08T14:52:25;101863.70;;;6.62;63.09
44872;BME280;30602;51.060;17.226;2024-03-08T14:56:18;101858.75;;;6.65;63.41
44872;BME280;30602;51.060;17.226;2024-03-08T15:00:00;101854.26;;;6.65;63.72
44872;BME280;30602;51.060;17.226;2024-03-08T15:03:38;101849.45;;;6.60;63.55
44872;BME280;30602;51.060;17.226;2024-03-08T15:07:15;101846.39;;;6.57;63.88
44872;BME280;30602;51.060;17.226;2024-03-08T15:11:18;101844.32;;;6.53;64.80
44872;BME280;30602;51.060;17.226;2024-03-08T15:14:45;101839.58;;;6.45;64.07
44872;BME280;30602;51.060;17.226;2024-03-08T15:18:38;101837.73;;;6.47;63.85
44872;BME280;30602;51.060;17.226;2024-03-08T15:22:19;101837.80;;;6.53;64.13
44872;BME280;30602;51.060;17.226;2024-03-08T15:25:41;101834.06;;;6.44;62.58
44872;BME280;30602;51.060;17.226;2024-03-08T15:29:29;101835.10;;;6.38;62.79
44872;BME280;30602;51.060;17.226;2024-03-08T15:33:37;101836.80;;;6.38;64.20
44872;BME280;30602;51.060;17.226;2024-03-08T15:37:26;101837.61;;;6.35;63.97
44872;BME280;30602;51.060;17.226;2024-03-08T15:41:11;101833.38;;;6.30;63.67
44872;BME280;30602;51.060;17.226;2024-03-08T15:44:33;101831.22;;;6.20;63.65
44872;BME280;30602;51.060;17.226;2024-03-08T15:48:00;101832.69;;;6.16;64.70
44872;BME280;30602;51.060;17.226;2024-03-08T15:51:43;101832.59;;;6.11;65.00
44872;BME280;30602;51.060;17.226;2024-03-08T15:55:23;101834.19;;;6.02;64.95
44872;BME280;30602;51.060;17.226;2024-03-08T15:59:13;101832.84;;;6.00;65.87
44872;BME280;30602;51.060;17.226;2024-03-08T16:03:20;101835.39;;;6.02;66.37
44872;BME280;30602;51.060;17.226;2024-03-08T16:07:04;101832.02;;;6.12;65.91
44872;BME280;30602;51.060;17.226;2024-03-08T16:10:28;101830.62;;;6.02;66.57
44872;BME280;30602;51.060;17.226;2024-03-08T16:13:59;101830.95;;;5.90;67.20
44872;BME280;30602;51.060;17.226;2024-03-08T16:17:44;101831.34;;;5.78;68.54
44872;BME280;30602;51.060;17.226;2024-03-08T16:21:05;101827.41;;;5.67;69.64
44872;BME280;30602;51.060;17.226;2024-03-08T16:24:29;101829.15;;;5.50;71.19
44872;BME280;30602;51.060;17.226;2024-03-08T16:28:16;101826.29;;;5.33;72.83
44872;BME280;30602;51.060;17.226;2024-03-08T16:31:56;101829.38;;;5.13;74.60
44872;BME280;30602;51.060;17.226;2024-03-08T16:35:39;101830.17;;;4.95;76.29
44872;BME280;30602;51.060;17.226;2024-03-08T16:39:38;101831.95;;;4.77;77.54
44872;BME280;30602;51.060;17.226;2024-03-08T16:43:21;101822.73;;;4.54;78.84
44872;BME280;30602;51.060;17.226;2024-03-08T16:47:07;101832.12;;;4.34;79.50
44872;BME280;30602;51.060;17.226;2024-03-08T16:50:52;101831.60;;;4.06;80.59
44872;BME280;30602;51.060;17.226;2024-03-08T16:54:54;101830.46;;;3.87;82.01
44872;BME280;30602;51.060;17.226;2024-03-08T16:58:17;101830.30;;;3.78;82.62
44872;BME280;30602;51.060;17.226;2024-03-08T17:02:00;101828.49;;;3.53;83.77
44872;BME280;30602;51.060;17.226;2024-03-08T17:06:04;101828.27;;;3.41;85.22
44872;BME280;30602;51.060;17.226;2024-03-08T17:10:11;101828.33;;;3.30;86.10
44872;BME280;30602;51.060;17.226;2024-03-08T17:13:35;101830.05;;;3.13;87.17
44872;BME280;30602;51.060;17.226;2024-03-08T17:17:21;101835.52;;;2.95;88.71
44872;BME280;30602;51.060;17.226;2024-03-08T17:20:50;101834.27;;;2.81;90.04
44872;BME280;30602;51.060;17.226;2024-03-08T17:24:38;101842.31;;;2.64;90.64
44872;BME280;30602;51.060;17.226;2024-03-08T17:28:47;101842.18;;;2.52;91.46
44872;BME280;30602;51.060;17.226;2024-03-08T17:32:12;101849.84;;;2.22;91.83
44872;BME280;30602;51.060;17.226;2024-03-08T17:35:57;101844.66;;;2.25;93.34
44872;BME280;30602;51.060;17.226;2024-03-08T17:39:49;101834.73;;;2.23;94.58
44872;BME280;30602;51.060;17.226;2024-03-08T17:43:51;101842.93;;;2.38;94.56
44872;BME280;30602;51.060;17.226;2024-03-08T17:47:32;101841.88;;;2.38;94.17
44872;BME280;30602;51.060;17.226;2024-03-08T17:51:27;101843.63;;;2.28;94.03
44872;BME280;30602;51.060;17.226;2024-03-08T17:55:44;101843.97;;;2.21;94.17
44872;BME280;30602;51.060;17.226;2024-03-08T17:59:19;101841.21;;;2.15;94.25
44872;BME280;30602;51.060;17.226;2024-03-08T18:03:22;101841.87;;;1.90;94.17
44872;BME280;30602;51.060;17.226;2024-03-08T18:06:54;101833.37;;;1.76;94.89
44872;BME280;30602;51.060;17.226;2024-03-08T18:14:40;101830.95;;;1.54;95.92
44872;BME280;30602;51.060;17.226;2024-03-08T18:18:09;101833.30;;;1.42;96.39
44872;BME280;30602;51.060;17.226;2024-03-08T18:22:04;101832.38;;;1.32;96.72
44872;BME280;30602;51.060;17.226;2024-03-08T18:25:54;101833.82;;;1.27;97.64
44872;BME280;30602;51.060;17.226;2024-03-08T18:29:17;101830.27;;;1.31;98.14
44872;BME280;30602;51.060;17.226;2024-03-08T18:33:39;101828.72;;;1.31;98.43
44872;BME280;30602;51.060;17.226;2024-03-08T18:37:44;101828.47;;;1.25;98.26
44872;BME280;30602;51.060;17.226;2024-03-08T18:41:53;101829.96;;;1.19;98.43
44872;BME280;30602;51.060;17.226;2024-03-08T18:45:38;101825.08;;;1.16;98.92
44872;BME280;30602;51.060;17.226;2024-03-08T18:49:59;101809.37;;;1.04;99.36
44872;BME280;30602;51.060;17.226;2024-03-08T18:53:30;101820.47;;;1.07;99.85
44872;BME280;30602;51.060;17.226;2024-03-08T18:57:11;101812.02;;;0.94;100.00
44872;BME280;30602;51.060;17.226;2024-03-08T19:01:13;101818.00;;;0.89;100.00
44872;BME280;30602;51.060;17.226;2024-03-08T19:04:43;101814.85;;;0.89;100.00
44872;BME280;30602;51.060;17.226;2024-03-08T19:08:18;101810.02;;;0.92;100.00
44872;BME280;30602;51.060;17.226;2024-03-08T19:12:30;101810.93;;;0.92;100.00
44872;BME280;30602;51.060;17.226;2024-03-08T19:16:11;101808.40;;;0.83;100.00
44872;BME280;30602;51.060;17.226;2024-03-08T19:19:56;101809.99;;;0.79;100.00
44872;BME280;30602;51.060;17.226;2024-03-08T19:23:24;101810.56;;;0.83;100.00
44872;BME280;30602;51.060;17.226;2024-03-08T19:26:58;101800.42;;;0.80;100.00
44872;BME280;30602;51.060;17.226;2024-03-08T19:30:28;101793.11;;;0.74;100.00
44872;BME280;30602;51.060;17.226;2024-03-08T19:34:31;101805.66;;;0.80;100.00
44872;BME280;30602;51.060;17.226;2024-03-08T19:38:30;101799.64;;;0.82;100.00
44872;BME280;30602;51.060;17.226;2024-03-08T19:42:32;101799.91;;;0.79;100.00
44872;BME280;30602;51.060;17.226;2024-03-08T19:45:55;101802.35;;;0.73;100.00
44872;BME280;30602;51.060;17.226;2024-03-08T19:49:29;101792.98;;;0.50;100.00
44872;BME280;30602;51.060;17.226;2024-03-08T19:53:44;101799.75;;;0.45;100.00
44872;BME280;30602;51.060;17.226;2024-03-08T19:57:13;101804.04;;;0.36;100.00
44872;BME280;30602;51.060;17.226;2024-03-08T20:00:38;101797.31;;;0.28;100.00
44872;BME280;30602;51.060;17.226;2024-03-08T20:04:40;101794.84;;;0.27;100.00
44872;BME280;30602;51.060;17.226;2024-03-08T20:08:24;101728.05;;;-0.11;100.00
44872;BME280;30602;51.060;17.226;2024-03-08T20:12:22;101793.09;;;0.22;100.00
44872;BME280;30602;51.060;17.226;2024-03-08T20:15:55;101786.27;;;0.17;100.00